Time;durP1;ratioP1;P1;durP2;ratioP2;P2;SDS_P1;SDS_P2;PMS_P1;PMS_P2;Temp;Humidity;BMP_temperature;BMP_pressure;BME280_temperature;BME280_humidity;BME280_pressure;Samples;Min_cycle;Max_cycle;Signal;HPM_P1;HPM_P2
2023/04/20 00:01:52;;;;;;;33.40;31.58;;;;;;;18.36;39.82;102158.75;5016385;28;20121;-81
2023/04/20 00:04:18;;;;;;;32.53;30.77;;;;;;;18.33;40.21;102151.06;5016223;28;20381;-81
2023/04/20 00:06:44;;;;;;;32.63;30.92;;;;;;;18.29;40.16;102139.81;5016921;28;20034;-80
2023/04/20 00:09:12;;;;;;;33.67;31.90;;;;;;;18.27;39.64;102152.09;5016881;28;20046;-79
2023/04/20 00:11:38;;;;;;;31.38;29.25;;;;;;;18.24;39.91;102149.88;5016721;28;20034;-81
2023/04/20 00:14:04;;;;;;;30.85;29.15;;;;;;;18.20;39.94;102140.56;5016638;28;20375;-81
2023/04/20 00:16:30;;;;;;;30.85;28.65;;;;;;;18.15;39.85;102136.69;5016136;28;20068;-81
2023/04/20 00:18:56;;;;;;;32.30;30.60;;;;;;;18.14;40.07;102139.66;5015942;28;20065;-83
2023/04/20 00:21:24;;;;;;;31.73;30.08;;;;;;;18.10;40.21;102133.09;5016247;28;20030;-81
2023/04/20 00:23:50;;;;;;;30.40;28.65;;;;;;;18.09;39.79;102131.41;5015779;28;20124;-80
2023/04/20 00:26:16;;;;;;;28.33;26.92;;;;;;;18.04;39.91;102134.97;5016067;28;20104;-81
2023/04/20 00:28:42;;;;;;;29.52;27.95;;;;;;;18.01;39.69;102132.72;5015815;28;20037;-82
2023/04/20 00:31:08;;;;;;;30.70;28.95;;;;;;;17.99;39.64;102125.84;4998214;28;20037;-80
2023/04/20 00:33:33;;;;;;;29.90;28.40;;;;;;;17.96;39.96;102132.66;5016243;28;20057;-80
2023/04/20 00:35:59;;;;;;;30.48;28.85;;;;;;;17.92;39.74;102126.91;5015749;28;20037;-81
2023/04/20 00:38:24;;;;;;;28.90;27.25;;;;;;;17.90;39.67;102123.59;5015285;28;20061;-80
2023/04/20 00:40:52;;;;;;;30.00;28.40;;;;;;;17.87;39.97;102126.03;4997937;28;20038;-81
2023/04/20 00:43:18;;;;;;;30.90;29.33;;;;;;;17.84;39.95;102121.06;5016443;28;20041;-80
2023/04/20 00:45:45;;;;;;;30.80;29.20;;;;;;;17.80;40.18;102115.31;4997951;28;20037;-79
2023/04/20 00:48:11;;;;;;;28.50;27.05;;;;;;;17.77;40.12;102118.53;5015959;28;20029;-79
2023/04/20 00:50:38;;;;;;;29.08;27.58;;;;;;;17.74;40.10;102105.38;5016024;28;20481;-80
2023/04/20 00:53:05;;;;;;;32.35;30.45;;;;;;;17.72;40.03;102110.28;4997621;28;20034;-81
2023/04/20 00:55:30;;;;;;;30.08;28.55;;;;;;;17.69;40.00;102106.16;5016316;28;20033;-80
2023/04/20 00:57:56;;;;;;;30.40;28.60;;;;;;;17.66;40.07;102098.44;5016424;28;20034;-83
2023/04/20 01:00:21;;;;;;;28.65;27.25;;;;;;;17.65;39.99;102095.97;5015108;28;20367;-81
2023/04/20 01:02:47;;;;;;;29.52;28.02;;;;;;;17.62;39.80;102091.84;5015217;28;20076;-80
2023/04/20 01:05:13;;;;;;;28.63;27.13;;;;;;;17.60;39.96;102090.47;5015014;28;20025;-80
2023/04/20 01:07:38;;;;;;;30.33;28.73;;;;;;;17.56;39.95;102092.88;5015356;28;20477;-81
2023/04/20 01:10:06;;;;;;;33.50;30.70;;;;;;;17.53;40.09;102086.00;5014866;28;20030;-80
2023/04/20 01:12:31;;;;;;;28.55;27.00;;;;;;;17.50;39.99;102081.06;5015354;28;20056;-81
2023/04/20 01:14:57;;;;;;;28.45;26.98;;;;;;;17.47;40.11;102081.59;5014649;28;20042;-82
2023/04/20 01:17:23;;;;;;;28.85;27.38;;;;;;;17.45;40.11;102077.47;4997364;28;20474;-78
2023/04/20 01:19:49;;;;;;;28.67;27.20;;;;;;;17.42;40.05;102076.06;5014494;28;20083;-82
2023/04/20 01:22:18;;;;;;;29.23;27.27;;;;;;;17.41;40.31;102062.66;5014830;28;20077;-82
2023/04/20 01:24:44;;;;;;;29.50;28.00;;;;;;;17.38;40.22;102057.72;5015378;28;20033;-81
2023/04/20 01:27:10;;;;;;;29.95;28.17;;;;;;;17.36;40.24;102057.13;5014610;28;20030;-81
2023/04/20 01:29:36;;;;;;;27.52;26.08;;;;;;;17.33;40.28;102049.47;4997735;28;20030;-81
2023/04/20 01:32:01;;;;;;;30.58;28.85;;;;;;;17.30;40.19;102045.34;5013819;28;20489;-80
2023/04/20 01:34:27;;;;;;;28.63;27.13;;;;;;;17.27;40.22;102038.47;5014627;28;20458;-80
2023/04/20 01:36:52;;;;;;;27.35;25.75;;;;;;;17.24;40.29;102039.00;5015074;28;20115;-80
2023/04/20 01:39:18;;;;;;;30.50;28.90;;;;;;;17.22;39.95;102037.59;5014085;28;20041;-80
2023/04/20 01:41:43;;;;;;;29.45;27.85;;;;;;;17.20;40.01;102037.03;5014397;28;20037;-80
2023/04/20 01:44:09;;;;;;;32.35;30.33;;;;;;;17.16;39.92;102028.53;5014397;28;20217;-80
2023/04/20 01:46:38;;;;;;;27.83;26.23;;;;;;;17.14;40.20;102022.50;5014422;28;20053;-80
2023/04/20 01:49:07;;;;;;;29.55;27.95;;;;;;;17.12;40.23;102026.56;5014080;28;20088;-81
2023/04/20 01:51:34;;;;;;;27.50;25.67;;;;;;;17.08;40.26;102028.97;5014358;28;20034;-81
2023/04/20 01:54:00;;;;;;;28.90;27.10;;;;;;;17.05;40.10;102029.47;5014269;28;20038;-81
2023/04/20 01:56:26;;;;;;;28.85;27.15;;;;;;;17.04;40.17;102027.84;5014301;28;20026;-82
2023/04/20 01:58:51;;;;;;;27.73;26.23;;;;;;;17.01;40.00;102028.34;4997220;28;20030;-82
2023/04/20 02:01:16;;;;;;;27.90;26.23;;;;;;;16.99;40.25;102027.78;5014115;28;20034;-83
2023/04/20 02:03:42;;;;;;;27.25;25.75;;;;;;;16.96;40.39;102017.34;5013804;28;20032;-82
2023/04/20 02:06:07;;;;;;;28.33;26.63;;;;;;;16.93;39.99;102010.50;5014289;28;20029;-82
2023/04/20 02:08:33;;;;;;;27.80;26.30;;;;;;;16.91;39.91;102006.38;5014100;28;20092;-81
2023/04/20 02:10:59;;;;;;;25.75;24.45;;;;;;;16.89;40.15;102008.56;5014164;28;20103;-83
2023/04/20 02:13:24;;;;;;;26.02;24.73;;;;;;;16.84;40.10;102001.94;5014220;28;20092;-80
2023/04/20 02:15:50;;;;;;;28.33;26.70;;;;;;;16.81;40.22;101997.00;5014274;28;20516;-82
2023/04/20 02:18:15;;;;;;;28.55;27.00;;;;;;;16.79;40.34;101999.16;5014020;28;20471;-84
2023/04/20 02:20:44;;;;;;;26.25;24.95;;;;;;;16.77;40.14;101989.53;5013956;28;20033;-82
2023/04/20 02:23:10;;;;;;;27.60;25.85;;;;;;;16.73;40.32;101983.78;5013840;28;20037;-82
2023/04/20 02:25:36;;;;;;;28.30;26.65;;;;;;;16.71;40.35;101979.66;5014432;28;20506;-83
2023/04/20 02:28:01;;;;;;;26.63;25.13;;;;;;;16.69;40.23;101979.91;5014001;28;20030;-77
2023/04/20 02:30:27;;;;;;;26.15;24.75;;;;;;;16.66;40.21;101980.41;5013785;28;20030;-82
2023/04/20 02:32:52;;;;;;;26.65;25.23;;;;;;;16.64;40.15;101971.66;5014153;28;20374;-80
2023/04/20 02:35:18;;;;;;;29.92;28.25;;;;;;;16.60;40.09;101965.03;5014905;28;20113;-80
2023/04/20 02:37:44;;;;;;;27.65;25.95;;;;;;;16.56;40.22;101972.91;5014048;28;20034;-83
2023/04/20 02:40:11;;;;;;;27.00;25.50;;;;;;;16.56;40.45;101972.09;5013624;28;20493;-84
2023/04/20 02:42:36;;;;;;;27.15;25.75;;;;;;;16.53;40.18;101967.97;5013300;28;20026;-80
2023/04/20 02:45:02;;;;;;;28.73;27.25;;;;;;;16.50;39.99;101960.28;5013615;28;20049;-82
2023/04/20 02:47:27;;;;;;;28.08;26.58;;;;;;;16.47;40.10;101958.06;5013293;28;20034;-84
2023/04/20 02:49:53;;;;;;;25.30;24.00;;;;;;;16.44;40.23;101956.66;5013518;28;20042;-82
2023/04/20 02:52:18;;;;;;;28.45;26.60;;;;;;;16.43;40.02;101956.94;5013526;28;20034;-82
2023/04/20 02:54:44;;;;;;;26.33;24.85;;;;;;;16.40;40.30;101955.53;5013497;28;20041;-82
2023/04/20 02:57:10;;;;;;;27.27;25.67;;;;;;;16.38;40.14;101954.94;5012462;28;20071;-82
2023/04/20 02:59:36;;;;;;;28.02;26.52;;;;;;;16.37;39.99;101956.00;5013886;28;20124;-81
2023/04/20 03:02:02;;;;;;;27.10;25.58;;;;;;;16.35;39.93;101955.44;5014136;28;20121;-83
2023/04/20 03:04:27;;;;;;;26.23;24.73;;;;;;;16.34;40.01;101953.78;5013999;28;20088;-82
2023/04/20 03:06:53;;;;;;;26.55;25.20;;;;;;;16.31;40.28;101934.41;5014059;28;20034;-81
2023/04/20 03:09:19;;;;;;;26.33;24.73;;;;;;;16.28;39.93;101938.47;4996540;28;20073;-82
2023/04/20 03:11:44;;;;;;;26.20;24.80;;;;;;;16.26;40.08;101943.31;5013786;28;20069;-83
2023/04/20 03:14:09;;;;;;;27.70;26.10;;;;;;;16.23;40.12;101930.22;4995956;28;20058;-84
2023/04/20 03:16:35;;;;;;;26.92;25.52;;;;;;;16.21;40.12;101941.34;5017877;28;20034;-83
2023/04/20 03:19:00;;;;;;;26.40;24.88;;;;;;;16.19;40.17;101938.03;5000844;28;20036;-80
2023/04/20 03:21:26;;;;;;;27.05;25.55;;;;;;;16.17;40.46;101936.66;5018384;28;20462;-83
2023/04/20 03:23:51;;;;;;;24.27;23.05;;;;;;;16.14;40.52;101940.69;5019614;28;20113;-83
2023/04/20 03:26:17;;;;;;;27.08;25.45;;;;;;;16.12;40.44;101926.50;5017370;28;20099;-83
2023/04/20 03:28:42;;;;;;;25.17;23.88;;;;;;;16.11;40.41;101935.75;5017647;28;20038;-82
2023/04/20 03:31:08;;;;;;;26.05;24.65;;;;;;;16.09;40.49;101927.00;5017939;28;20034;-82
2023/04/20 03:33:33;;;;;;;25.67;24.17;;;;;;;16.08;40.42;101924.53;5018055;28;20073;-80
2023/04/20 03:35:58;;;;;;;25.15;23.83;;;;;;;16.05;39.94;101922.28;5017296;28;20040;-82
2023/04/20 03:38:24;;;;;;;25.88;24.20;;;;;;;16.00;40.61;101910.25;5016846;28;20034;-84
2023/04/20 03:40:49;;;;;;;24.92;23.63;;;;;;;16.00;40.48;101920.31;4983314;28;20165;-81
2023/04/20 03:43:15;;;;;;;25.67;23.88;;;;;;;15.97;40.50;101908.00;4999920;28;20038;-80
2023/04/20 03:45:40;;;;;;;25.00;23.70;;;;;;;15.94;40.72;101911.25;4999216;28;20121;-81
2023/04/20 03:48:06;;;;;;;25.50;24.10;;;;;;;15.93;40.45;101901.44;5016697;28;20033;-82
2023/04/20 03:50:31;;;;;;;27.95;26.55;;;;;;;15.91;40.61;101900.84;5016865;28;20088;-82
2023/04/20 03:52:56;;;;;;;26.60;25.02;;;;;;;15.89;40.72;101902.19;4998841;28;20038;-82
2023/04/20 03:55:22;;;;;;;27.13;25.52;;;;;;;15.86;40.79;101894.50;4999182;28;20477;-81
2023/04/20 03:57:47;;;;;;;25.83;24.42;;;;;;;15.85;40.66;101887.41;5016667;28;20030;-81
2023/04/20 04:00:13;;;;;;;27.48;25.85;;;;;;;15.84;40.46;101880.31;5016571;28;20440;-81
2023/04/20 04:02:38;;;;;;;25.95;24.40;;;;;;;15.84;40.68;101889.31;5016808;28;20105;-82
2023/04/20 04:05:04;;;;;;;26.13;24.65;;;;;;;15.83;40.24;101892.28;4998842;28;20068;-79
2023/04/20 04:07:29;;;;;;;25.05;23.77;;;;;;;15.80;40.55;101888.16;5015984;28;20426;-78
2023/04/20 04:09:55;;;;;;;25.73;24.17;;;;;;;15.79;40.49;101883.78;5016479;28;20034;-81
2023/04/20 04:12:20;;;;;;;26.63;25.02;;;;;;;15.77;40.42;101886.78;5016779;28;20080;-81
2023/04/20 04:14:46;;;;;;;25.60;24.20;;;;;;;15.76;40.58;101884.28;4994760;28;20061;-82
2023/04/20 04:17:13;;;;;;;23.77;22.45;;;;;;;15.73;40.63;101884.78;4996433;28;20046;-78
2023/04/20 04:19:38;;;;;;;26.98;25.00;;;;;;;15.71;40.75;101885.03;4996677;28;20066;-82
2023/04/20 04:22:04;;;;;;;25.00;23.35;;;;;;;15.69;40.42;101879.00;4997490;28;20058;-80
2023/04/20 04:24:30;;;;;;;26.65;25.00;;;;;;;15.67;40.75;101870.22;5011629;28;20594;-82
2023/04/20 04:26:57;;;;;;;26.42;24.27;;;;;;;15.65;40.79;101864.22;4995869;28;20564;-81
2023/04/20 04:29:24;;;;;;;27.38;25.88;;;;;;;15.65;40.60;101864.22;4996705;28;20038;-85
2023/04/20 04:31:50;;;;;;;23.25;22.05;;;;;;;15.62;40.66;101864.69;4996217;28;20030;-82
2023/04/20 04:34:17;;;;;;;25.05;23.70;;;;;;;15.59;41.13;101860.56;4996126;28;20042;-82
2023/04/20 04:36:43;;;;;;;24.80;23.30;;;;;;;15.60;41.00;101861.41;4996146;28;20038;-83
2023/04/20 04:39:08;;;;;;;26.10;24.02;;;;;;;15.59;40.83;101851.56;4996037;28;20042;-82
2023/04/20 04:41:33;;;;;;;23.00;21.77;;;;;;;15.56;40.86;101849.34;4996553;28;20370;-82
2023/04/20 04:43:59;;;;;;;25.98;24.48;;;;;;;15.54;40.99;101846.06;4996813;28;20042;-82
2023/04/20 04:46:26;;;;;;;25.55;24.13;;;;;;;15.53;40.83;101845.22;4996037;28;20493;-82
2023/04/20 04:48:51;;;;;;;26.05;24.50;;;;;;;15.51;40.97;101838.38;4996812;28;20038;-88
2023/04/20 04:51:17;;;;;;;24.65;22.88;;;;;;;15.50;40.86;101834.03;5010572;28;20045;-79
2023/04/20 04:53:45;;;;;;;25.98;24.58;;;;;;;15.48;41.01;101826.09;4996010;28;20039;-74
2023/04/20 04:56:12;;;;;;;24.63;23.10;;;;;;;15.46;40.91;101830.97;4995816;28;20053;-75
2023/04/20 04:58:37;;;;;;;23.90;22.55;;;;;;;15.46;40.76;101824.69;4995305;28;20467;-75
2023/04/20 05:01:03;;;;;;;25.90;23.60;;;;;;;15.41;41.08;101820.00;4995300;28;20034;-76
2023/04/20 05:03:28;;;;;;;26.15;24.63;;;;;;;15.40;40.99;101823.78;4995794;28;20054;-75
2023/04/20 05:05:55;;;;;;;23.83;22.52;;;;;;;15.39;40.83;101821.31;4995455;28;20172;-75
2023/04/20 05:08:21;;;;;;;25.02;23.58;;;;;;;15.39;40.75;101819.41;4995129;28;20045;-75
2023/04/20 05:10:46;;;;;;;23.10;21.90;;;;;;;15.37;40.93;101810.66;4995845;28;20045;-75
2023/04/20 05:13:12;;;;;;;23.40;21.95;;;;;;;15.35;41.11;101810.09;4997014;28;20034;-76
2023/04/20 05:15:37;;;;;;;23.05;21.80;;;;;;;15.33;40.83;101810.34;5014656;28;20056;-76
2023/04/20 05:18:03;;;;;;;22.95;21.15;;;;;;;15.34;41.01;101817.41;4997346;28;20042;-76
2023/04/20 05:20:28;;;;;;;24.33;22.92;;;;;;;15.32;41.12;101822.31;5014945;28;20137;-77
2023/04/20 05:22:53;;;;;;;22.98;21.55;;;;;;;15.32;41.05;101813.31;4997563;28;20025;-76
2023/04/20 05:25:19;;;;;;;23.63;22.42;;;;;;;15.30;41.10;101819.00;5015033;28;20030;-75
2023/04/20 05:27:45;;;;;;;23.63;22.08;;;;;;;15.30;41.08;101820.91;5014910;28;20049;-75
2023/04/20 05:30:10;;;;;;;25.27;23.77;;;;;;;15.29;41.06;101819.25;5014576;28;20121;-75
2023/04/20 05:32:39;;;;;;;24.50;23.00;;;;;;;15.27;40.95;101822.22;5014437;28;20049;-75
2023/04/20 05:35:05;;;;;;;23.38;22.08;;;;;;;15.25;41.31;101820.84;4996884;28;20036;-75
2023/04/20 05:37:31;;;;;;;25.30;23.90;;;;;;;15.24;41.25;101817.25;5013613;28;20038;-75
2023/04/20 05:39:56;;;;;;;24.67;23.27;;;;;;;15.23;41.14;101818.34;5014445;28;20037;-75
2023/04/20 05:42:21;;;;;;;24.45;22.92;;;;;;;15.23;41.12;101817.53;5014430;28;20058;-76
2023/04/20 05:44:47;;;;;;;24.67;23.17;;;;;;;15.21;41.24;101815.03;4997168;28;20037;-76
2023/04/20 05:47:12;;;;;;;23.58;22.08;;;;;;;15.21;41.15;101819.66;5013081;28;20044;-76
2023/04/20 05:49:38;;;;;;;25.75;24.25;;;;;;;15.18;41.74;101815.53;4996787;28;20466;-76
2023/04/20 05:52:03;;;;;;;21.92;20.35;;;;;;;15.18;41.38;101818.25;5014202;28;20030;-76
2023/04/20 05:54:29;;;;;;;23.85;22.40;;;;;;;15.15;41.49;101818.78;5014281;28;20459;-76
2023/04/20 05:56:56;;;;;;;24.83;23.15;;;;;;;15.15;41.67;101816.03;5014053;28;20458;-75
2023/04/20 05:59:22;;;;;;;23.75;22.45;;;;;;;15.14;41.51;101814.38;5014026;28;20030;-75
2023/04/20 06:01:48;;;;;;;24.15;22.40;;;;;;;15.13;41.65;101808.13;5014065;28;20068;-75
2023/04/20 06:04:13;;;;;;;24.73;23.33;;;;;;;15.13;41.57;101804.56;4996505;28;20061;-76
2023/04/20 06:06:38;;;;;;;22.25;20.75;;;;;;;15.11;41.71;101798.56;5014465;28;20373;-76
2023/04/20 06:09:04;;;;;;;23.73;22.40;;;;;;;15.11;41.56;101804.81;5013697;28;20030;-75
2023/04/20 06:11:30;;;;;;;24.67;23.10;;;;;;;15.10;41.72;101796.91;5014632;28;20037;-76
2023/04/20 06:13:55;;;;;;;23.00;21.70;;;;;;;15.08;41.79;101791.72;5013656;28;20046;-76
2023/04/20 06:16:21;;;;;;;22.42;21.20;;;;;;;15.08;41.69;101788.97;5014118;28;20359;-73
2023/04/20 06:18:46;;;;;;;22.02;20.83;;;;;;;15.08;41.55;101799.88;5014416;28;20359;-76
2023/04/20 06:21:12;;;;;;;21.92;20.83;;;;;;;15.07;41.98;101808.31;5013540;28;20113;-75
2023/04/20 06:23:37;;;;;;;26.15;24.65;;;;;;;15.04;42.05;101793.25;5013147;28;20033;-77
2023/04/20 06:26:03;;;;;;;23.55;22.33;;;;;;;15.04;41.84;101787.00;4980025;28;20424;-85
2023/04/20 06:28:29;;;;;;;25.70;24.13;;;;;;;15.03;41.97;101783.47;4996241;28;20030;-76
2023/04/20 06:30:54;;;;;;;24.63;23.25;;;;;;;15.02;42.03;101781.81;5013850;28;20040;-75
2023/04/20 06:33:20;;;;;;;23.52;22.23;;;;;;;15.02;42.03;101776.38;5013764;28;20038;-75
2023/04/20 06:35:45;;;;;;;24.33;22.88;;;;;;;14.99;42.02;101778.75;5013964;28;20026;-76
2023/04/20 06:38:11;;;;;;;24.23;22.83;;;;;;;14.99;41.86;101781.47;5014344;28;20465;-80
2023/04/20 06:40:36;;;;;;;25.75;24.23;;;;;;;14.99;41.86;101782.28;5013441;28;20060;-76
2023/04/20 06:43:02;;;;;;;22.90;21.70;;;;;;;14.99;42.06;101786.91;5013920;28;20070;-75
2023/04/20 06:45:27;;;;;;;23.00;21.58;;;;;;;14.98;42.13;101777.13;4996411;28;20124;-75
2023/04/20 06:47:53;;;;;;;23.70;22.35;;;;;;;14.98;42.06;101779.84;5013564;28;20492;-79
2023/04/20 06:50:18;;;;;;;23.88;22.45;;;;;;;14.98;41.74;101777.13;5017288;28;20076;-75
2023/04/20 06:52:44;;;;;;;24.02;22.50;;;;;;;14.97;41.93;101780.88;5018014;28;20029;-75
2023/04/20 06:55:10;;;;;;;23.10;21.60;;;;;;;14.94;42.17;101768.59;5017579;28;20033;-76
2023/04/20 06:57:38;;;;;;;25.48;23.90;;;;;;;14.94;42.01;101776.78;5017622;28;20053;-75
2023/04/20 07:00:07;;;;;;;22.75;21.38;;;;;;;14.93;41.90;101770.50;5017405;28;20034;-76
2023/04/20 07:02:44;;;;;;;23.98;22.35;;;;;;;14.94;42.08;101779.50;5017800;28;20426;-76
2023/04/20 07:05:10;;;;;;;22.60;21.30;;;;;;;14.92;42.06;101774.31;5017359;28;20050;-76
2023/04/20 07:07:36;;;;;;;25.27;23.67;;;;;;;14.91;42.06;101769.91;5017192;28;20100;-75
2023/04/20 07:10:01;;;;;;;22.65;21.45;;;;;;;14.92;42.24;101773.50;5017222;28;20474;-77
2023/04/20 07:12:27;;;;;;;22.40;21.10;;;;;;;14.91;42.34;101760.94;4999470;28;20034;-75
2023/04/20 07:14:53;;;;;;;23.10;21.38;;;;;;;14.91;42.38;101761.75;5017092;28;20050;-75
2023/04/20 07:17:18;;;;;;;24.15;22.52;;;;;;;14.92;42.25;101768.06;5017164;28;20113;-75
2023/04/20 07:19:43;;;;;;;24.05;22.65;;;;;;;14.91;42.13;101769.09;5016942;28;20132;-76
2023/04/20 07:22:09;;;;;;;23.30;21.75;;;;;;;14.91;42.28;101758.22;4999240;28;20470;-76
2023/04/20 07:24:34;;;;;;;22.67;21.27;;;;;;;14.90;42.32;101767.47;4999833;28;20394;-76
2023/04/20 07:27:00;;;;;;;23.67;22.27;;;;;;;14.91;42.21;101763.66;5017748;28;20069;-76
2023/04/20 07:29:25;;;;;;;24.05;22.63;;;;;;;14.91;42.21;101769.09;5016983;28;20056;-77
2023/04/20 07:31:51;;;;;;;22.58;21.38;;;;;;;14.90;42.40;101770.19;5016765;28;20124;-74
2023/04/20 07:34:16;;;;;;;24.92;23.20;;;;;;;14.90;42.45;101768.28;5017021;28;20123;-74
2023/04/20 07:36:41;;;;;;;24.33;23.02;;;;;;;14.91;42.40;101766.38;5016589;28;20466;-74
2023/04/20 07:39:07;;;;;;;22.65;21.48;;;;;;;14.89;42.35;101766.66;5016626;28;20036;-75
2023/04/20 07:41:32;;;;;;;24.02;22.17;;;;;;;14.89;42.38;101771.25;5017073;28;20030;-76
2023/04/20 07:43:57;;;;;;;23.70;22.42;;;;;;;14.90;42.59;101771.00;5016566;28;20037;-76
2023/04/20 07:46:23;;;;;;;23.35;22.13;;;;;;;14.91;42.39;101772.66;5016792;28;20117;-77
2023/04/20 07:48:48;;;;;;;25.98;24.27;;;;;;;14.89;42.27;101768.53;5016504;28;20109;-75
2023/04/20 07:51:14;;;;;;;24.27;22.67;;;;;;;14.90;42.34;101767.47;5017276;28;20038;-76
2023/04/20 07:53:41;;;;;;;24.77;23.27;;;;;;;14.89;42.49;101757.63;4998829;28;20501;-75
2023/04/20 07:56:06;;;;;;;22.70;21.38;;;;;;;14.88;42.55;101756.00;5016816;28;20034;-75
2023/04/20 07:58:32;;;;;;;23.67;22.27;;;;;;;14.90;42.57;101756.59;5016984;28;20359;-77
2023/04/20 08:00:57;;;;;;;23.20;21.80;;;;;;;14.88;42.44;101761.44;5015652;28;20517;-75
2023/04/20 08:03:22;;;;;;;23.25;21.95;;;;;;;14.89;42.70;101763.09;5016203;28;20034;-77
2023/04/20 08:05:48;;;;;;;24.67;23.27;;;;;;;14.89;42.46;101763.09;5016110;28;20041;-75
2023/04/20 08:08:13;;;;;;;23.52;22.23;;;;;;;14.88;42.63;101756.00;4998742;28;20157;-75
2023/04/20 08:10:38;;;;;;;26.40;24.48;;;;;;;14.87;42.71;101757.91;5016042;28;20046;-76
2023/04/20 08:13:04;;;;;;;26.02;24.30;;;;;;;14.88;42.48;101747.84;4998942;28;20029;-75
2023/04/20 08:15:30;;;;;;;21.67;20.55;;;;;;;14.83;42.29;101747.75;5016810;28;20121;-76
2023/04/20 08:17:55;;;;;;;23.73;22.17;;;;;;;14.83;42.25;101745.84;5015895;28;20069;-77
2023/04/20 08:20:20;;;;;;;24.00;22.63;;;;;;;14.85;42.36;101743.72;5016183;28;20125;-78
2023/04/20 08:22:46;;;;;;;25.70;24.00;;;;;;;14.86;42.46;101749.97;5016120;28;20121;-82
2023/04/20 08:25:11;;;;;;;24.92;23.42;;;;;;;14.87;42.35;101748.94;4998272;28;20041;-80
2023/04/20 08:27:36;;;;;;;23.83;22.48;;;;;;;14.87;42.20;101736.16;5016214;28;20378;-78
2023/04/20 08:30:06;;;;;;;23.42;22.15;;;;;;;14.85;42.24;101746.44;5015640;28;20037;-82
2023/04/20 08:32:32;;;;;;;21.73;20.63;;;;;;;14.87;42.54;101736.16;5015827;28;20037;-79
2023/04/20 08:34:57;;;;;;;24.75;23.25;;;;;;;14.89;42.28;101733.16;5015943;28;20081;-84
2023/04/20 08:37:24;;;;;;;23.23;21.90;;;;;;;14.90;42.19;101727.47;5014435;28;20375;-80
2023/04/20 08:39:49;;;;;;;25.05;23.50;;;;;;;14.94;42.23;101716.91;5015825;28;20100;-83
2023/04/20 08:42:15;;;;;;;23.70;22.08;;;;;;;14.96;42.43;101719.41;5016193;28;20455;-79
2023/04/20 08:44:41;;;;;;;23.65;22.30;;;;;;;14.96;42.24;101722.13;5015725;28;20038;-85
2023/04/20 08:47:09;;;;;;;25.30;23.90;;;;;;;14.97;42.10;101723.75;4997958;28;20386;-82
2023/04/20 08:49:35;;;;;;;25.38;23.75;;;;;;;14.99;42.12;101719.72;5015319;28;20041;-79
2023/04/20 08:52:00;;;;;;;22.38;21.08;;;;;;;14.98;42.22;101715.34;5015306;28;20038;-83
2023/04/20 08:54:26;;;;;;;25.00;23.40;;;;;;;15.00;42.13;101712.41;5014281;28;20113;-83
2023/04/20 08:56:51;;;;;;;24.50;23.00;;;;;;;14.99;42.23;101713.47;5015505;28;20493;-80
2023/04/20 08:59:16;;;;;;;23.83;22.48;;;;;;;14.97;42.25;101716.44;5015207;28;20474;-79
2023/04/20 09:01:43;;;;;;;23.33;21.95;;;;;;;14.99;42.19;101714.28;5015321;28;20037;-87
2023/04/20 09:04:19;;;;;;;25.08;23.52;;;;;;;15.02;41.97;101710.22;5015236;28;20458;-76
2023/04/20 09:06:49;;;;;;;25.55;23.83;;;;;;;15.02;42.22;101711.06;5014857;28;20133;-76
2023/04/20 09:09:15;;;;;;;23.85;22.20;;;;;;;15.03;42.23;101712.72;5014935;28;20022;-76
2023/04/20 09:11:42;;;;;;;22.80;21.48;;;;;;;15.04;41.98;101711.63;5014195;28;20045;-77
2023/04/20 09:14:11;;;;;;;24.38;22.70;;;;;;;15.06;42.22;101704.06;5015498;28;20054;-79
2023/04/20 09:16:38;;;;;;;23.42;22.13;;;;;;;15.06;42.37;101697.78;5016062;28;20029;-77
2023/04/20 09:19:04;;;;;;;22.35;21.15;;;;;;;15.07;42.08;101694.84;5015136;28;20065;-75
2023/04/20 09:21:30;;;;;;;23.63;21.70;;;;;;;15.10;42.07;101696.22;5015270;28;20045;-77
2023/04/20 09:24:06;;;;;;;25.17;23.48;;;;;;;15.11;42.19;101689.69;5016638;28;20451;-76
2023/04/20 09:26:33;;;;;;;26.02;24.45;;;;;;;15.12;42.07;101694.09;5017323;28;20450;-77
2023/04/20 09:29:00;;;;;;;24.40;22.95;;;;;;;15.14;42.15;101694.63;5013956;28;20034;-78
2023/04/20 09:31:25;;;;;;;23.23;21.92;;;;;;;15.15;42.27;101697.13;5015507;28;20052;-78
2023/04/20 09:34:02;;;;;;;25.17;23.70;;;;;;;15.13;42.53;101691.09;5015415;28;20034;-79
2023/04/20 09:36:54;;;;;;;22.25;21.05;;;;;;;15.13;42.50;101693.00;5014886;28;20029;-80
2023/04/20 09:39:22;;;;;;;24.50;22.52;;;;;;;15.17;42.36;101687.88;5011967;28;20126;-76
2023/04/20 09:41:49;;;;;;;24.42;22.92;;;;;;;15.19;42.64;101692.00;5015308;28;20026;-76
2023/04/20 09:44:16;;;;;;;25.45;24.05;;;;;;;15.18;42.51;101693.06;5014658;28;20057;-73
2023/04/20 09:46:43;;;;;;;22.75;21.55;;;;;;;15.22;42.35;101687.94;4997327;28;20030;-75
2023/04/20 09:49:11;;;;;;;25.52;24.13;;;;;;;15.23;42.51;101693.16;4996671;28;20107;-74
2023/04/20 09:51:40;;;;;;;23.20;22.00;;;;;;;15.25;42.62;101684.75;5014289;28;20072;-79
2023/04/20 09:54:06;;;;;;;24.27;22.88;;;;;;;15.29;42.43;101683.16;5014848;28;20026;-78
2023/04/20 09:56:33;;;;;;;24.90;23.60;;;;;;;15.29;42.32;101678.53;5014294;28;20041;-76
2023/04/20 09:59:00;;;;;;;24.25;22.88;;;;;;;15.33;42.21;101681.59;5012835;28;20072;-77
2023/04/20 10:01:28;;;;;;;24.05;22.65;;;;;;;15.34;41.85;101678.59;5014506;28;20026;-74
2023/04/20 10:03:54;;;;;;;24.40;23.00;;;;;;;15.34;42.16;101675.88;5014582;28;20030;-78
2023/04/20 10:06:26;;;;;;;24.63;23.13;;;;;;;15.35;42.36;101671.28;5014527;28;20061;-75
2023/04/20 10:08:52;;;;;;;24.98;23.20;;;;;;;15.38;42.39;101664.50;5014725;28;20022;-76
2023/04/20 10:11:33;;;;;;;24.88;22.15;;;;;;;15.39;42.45;101675.13;5014195;28;20033;-76
2023/04/20 10:14:16;;;;;;;26.00;24.42;;;;;;;15.40;42.16;101668.63;5013935;28;20458;-76
2023/04/20 10:16:43;;;;;;;23.48;22.13;;;;;;;15.41;42.50;101661.25;5014544;28;20026;-78
2023/04/20 10:19:08;;;;;;;23.65;22.38;;;;;;;15.43;42.44;101662.66;5013926;28;20034;-76
2023/04/20 10:21:47;;;;;;;23.35;22.08;;;;;;;15.43;43.30;101659.94;5013855;28;20030;-75
2023/04/20 10:24:13;;;;;;;25.17;23.48;;;;;;;15.45;42.75;101657.78;5013340;28;20034;-74
2023/04/20 10:26:44;;;;;;;25.25;23.75;;;;;;;15.48;42.61;101659.19;5013804;28;20030;-76
2023/04/20 10:29:11;;;;;;;26.08;24.27;;;;;;;15.51;42.33;101653.22;5013941;28;20034;-74
2023/04/20 10:31:40;;;;;;;25.25;23.38;;;;;;;15.51;42.50;101654.03;5013594;28;20132;-75
2023/04/20 10:34:07;;;;;;;26.52;24.75;;;;;;;15.53;42.26;101646.44;5014127;28;20034;-75
2023/04/20 10:36:36;;;;;;;24.80;23.20;;;;;;;15.56;42.14;101658.72;5014280;28;20065;-75
2023/04/20 10:39:16;;;;;;;25.00;23.60;;;;;;;15.54;42.30;101653.53;5013884;28;20484;-78
2023/04/20 10:41:51;;;;;;;24.65;23.25;;;;;;;15.55;42.30;101657.91;5013440;28;20040;-76
2023/04/20 10:44:17;;;;;;;24.70;23.30;;;;;;;15.55;42.72;101655.19;5013509;28;20079;-75
2023/04/20 10:46:47;;;;;;;26.33;24.73;;;;;;;15.56;42.57;101654.09;4996737;28;20042;-76
2023/04/20 10:49:13;;;;;;;25.50;24.00;;;;;;;15.56;42.53;101658.72;5012519;28;20061;-75
2023/04/20 10:51:45;;;;;;;24.85;23.35;;;;;;;15.58;42.89;101656.59;4995804;28;20411;-75
2023/04/20 10:54:11;;;;;;;27.85;26.25;;;;;;;15.60;42.69;101654.44;5013962;28;20041;-75
2023/04/20 10:56:44;;;;;;;25.75;24.30;;;;;;;15.61;42.77;101652.53;4996176;28;20034;-77
2023/04/20 10:59:15;;;;;;;24.77;23.42;;;;;;;15.63;42.81;101656.63;5014122;28;20038;-76
2023/04/20 11:01:41;;;;;;;23.90;22.60;;;;;;;15.64;42.74;101654.72;5013555;28;20030;-76
2023/04/20 11:04:09;;;;;;;25.45;23.83;;;;;;;15.65;42.60;101640.88;5013356;28;20168;-74
2023/04/20 11:06:36;;;;;;;25.85;23.95;;;;;;;15.66;42.78;101649.88;5013374;28;20022;-77